Time;durP1;ratioP1;P1;durP2;ratioP2;P2;SDS_P1;SDS_P2;PMS_P1;PMS_P2;Temp;Humidity;BMP_temperature;BMP_pressure;BME280_temperature;BME280_humidity;BME280_pressure;Samples;Min_cycle;Max_cycle;Signal;HPM_P1;HPM_P2
2023/12/06 00:00:37;;;;;;;23.27;13.93;;;;;;;5.80;100.00;98015.81;5031848;28;20175;-58
2023/12/06 00:03:03;;;;;;;20.77;12.82;;;;;;;6.33;100.00;98103.50;5031407;28;20229;-58
2023/12/06 00:05:29;;;;;;;24.02;15.23;;;;;;;6.15;100.00;98084.00;5031467;28;20351;-58
2023/12/06 00:07:55;;;;;;;27.80;17.38;;;;;;;6.10;100.00;98105.69;5031453;28;20611;-58
2023/12/06 00:10:21;;;;;;;30.35;17.48;;;;;;;6.21;100.00;98088.78;5031434;28;20175;-58
2023/12/06 00:12:46;;;;;;;32.47;17.95;;;;;;;6.30;100.00;98095.16;5031475;28;20206;-57
2023/12/06 00:15:12;;;;;;;28.52;17.08;;;;;;;6.32;100.00;98091.59;5031690;28;20265;-58
2023/12/06 00:17:37;;;;;;;32.53;17.80;;;;;;;6.04;100.00;98046.97;5031253;28;20224;-57
2023/12/06 00:20:03;;;;;;;35.25;18.70;;;;;;;6.29;100.00;98086.59;5031362;28;20327;-57
2023/12/06 00:22:29;;;;;;;30.13;18.38;;;;;;;6.16;100.00;98077.09;5031299;28;20680;-58
2023/12/06 00:24:54;;;;;;;29.10;18.60;;;;;;;6.21;100.00;98068.25;5031275;28;20191;-58
2023/12/06 00:27:21;;;;;;;38.50;19.40;;;;;;;6.15;100.00;98073.72;5031298;28;20189;-58
2023/12/06 00:29:46;;;;;;;38.15;20.70;;;;;;;5.96;100.00;98031.19;5031225;28;20651;-58
2023/12/06 00:32:12;;;;;;;31.85;18.42;;;;;;;6.04;100.00;98042.69;5031281;28;20175;-57
2023/12/06 00:34:37;;;;;;;35.88;19.52;;;;;;;6.18;100.00;98081.25;5031227;28;20633;-58
2023/12/06 00:37:03;;;;;;;31.65;19.77;;;;;;;5.85;100.00;98036.94;5031195;28;20171;-58
2023/12/06 00:39:28;;;;;;;26.20;16.33;;;;;;;5.83;100.00;98020.75;5033595;28;20190;-58
2023/12/06 00:41:54;;;;;;;22.65;15.35;;;;;;;5.92;100.00;98025.41;5035047;28;20221;-58
2023/12/06 00:44:19;;;;;;;23.67;15.45;;;;;;;5.98;100.00;98019.06;5035313;28;20588;-58
2023/12/06 00:46:45;;;;;;;19.30;12.55;;;;;;;6.18;100.00;98047.84;5034964;28;20201;-58
2023/12/06 00:49:11;;;;;;;17.13;12.10;;;;;;;6.34;100.00;98071.75;5034913;28;20189;-58
2023/12/06 00:51:38;;;;;;;17.88;12.57;;;;;;;6.05;100.00;98036.63;5034860;28;20167;-58
2023/12/06 00:54:04;;;;;;;19.13;13.20;;;;;;;5.57;100.00;97962.34;5034858;28;20174;-57
2023/12/06 00:56:29;;;;;;;21.63;13.50;;;;;;;6.02;100.00;98047.09;5034894;28;20182;-58
2023/12/06 00:58:55;;;;;;;23.00;15.10;;;;;;;5.69;100.00;98002.72;5034762;28;20666;-57
2023/12/06 01:01:21;;;;;;;28.17;17.48;;;;;;;5.79;100.00;97983.34;5034740;28;20179;-58
2023/12/06 01:03:47;;;;;;;28.20;17.90;;;;;;;6.20;100.00;98050.34;5034509;28;20206;-57
2023/12/06 01:06:13;;;;;;;28.27;18.27;;;;;;;5.67;100.00;97968.63;5034639;28;20177;-58
2023/12/06 01:08:38;;;;;;;31.23;19.10;;;;;;;6.03;100.00;98001.66;5034577;28;20171;-58
2023/12/06 01:11:04;;;;;;;31.00;17.75;;;;;;;6.19;100.00;98005.03;5034126;28;20181;-58
2023/12/06 01:13:29;;;;;;;35.38;21.13;;;;;;;6.33;100.00;97999.91;5034191;28;20317;-58
2023/12/06 01:15:55;;;;;;;29.73;18.48;;;;;;;6.60;100.00;98047.97;5034145;28;20171;-57
2023/12/06 01:18:20;;;;;;;36.97;22.90;;;;;;;6.68;100.00;98024.38;5034129;28;20613;-58
2023/12/06 01:20:46;;;;;;;45.65;23.75;;;;;;;6.53;100.00;98002.16;5034354;28;20175;-58
2023/12/06 01:23:11;;;;;;;39.53;23.13;;;;;;;6.20;100.00;97943.31;5034217;28;20649;-58
2023/12/06 01:25:37;;;;;;;39.58;21.25;;;;;;;6.20;100.00;97943.31;5033991;28;20631;-58
2023/12/06 01:28:03;;;;;;;44.53;22.35;;;;;;;6.74;100.00;98019.69;5034220;28;20178;-58
2023/12/06 01:30:28;;;;;;;40.88;22.83;;;;;;;6.76;100.00;98024.75;5034127;28;20221;-58
2023/12/06 01:32:54;;;;;;;40.88;24.15;;;;;;;6.39;100.00;97958.44;5034169;28;20562;-58
2023/12/06 01:35:22;;;;;;;38.10;22.88;;;;;;;6.80;100.00;98019.34;5034067;28;20177;-57
2023/12/06 01:37:47;;;;;;;41.28;22.20;;;;;;;6.28;100.00;97935.13;5034034;28;20186;-58
2023/12/06 01:40:13;;;;;;;41.97;22.85;;;;;;;6.30;100.00;97939.25;5033987;28;20709;-57
2023/12/06 01:42:38;;;;;;;41.80;21.85;;;;;;;6.82;100.00;98012.34;5033869;28;20206;-58
2023/12/06 01:45:05;;;;;;;38.85;22.58;;;;;;;6.41;100.00;97941.22;5033945;28;20178;-58
2023/12/06 01:47:32;;;;;;;48.42;24.42;;;;;;;6.80;100.00;97993.63;5033762;28;20178;-57
2023/12/06 01:50:00;;;;;;;47.17;23.40;;;;;;;6.44;100.00;97933.31;5033786;28;20179;-57
2023/12/06 01:52:26;;;;;;;44.95;24.90;;;;;;;6.64;100.00;97953.53;5033768;28;20550;-57
2023/12/06 01:54:52;;;;;;;49.00;25.90;;;;;;;6.71;100.00;97971.03;5031131;28;20186;-58
2023/12/06 01:57:17;;;;;;;46.53;24.70;;;;;;;6.50;100.00;97930.38;5031148;28;20194;-57
2023/12/06 01:59:44;;;;;;;44.40;24.40;;;;;;;6.79;100.00;97966.28;5031250;28;20198;-58
2023/12/06 02:02:11;;;;;;;49.45;25.30;;;;;;;6.84;100.00;97977.09;5031086;28;20210;-58
2023/12/06 02:04:38;;;;;;;43.30;25.13;;;;;;;6.69;100.00;97947.16;5031111;28;20670;-57
2023/12/06 02:07:04;;;;;;;42.92;23.98;;;;;;;6.48;100.00;97902.19;5031066;28;20189;-58
2023/12/06 02:09:29;;;;;;;44.75;24.63;;;;;;;6.84;100.00;97951.41;5031236;28;20186;-57
2023/12/06 02:11:55;;;;;;;51.28;28.27;;;;;;;6.88;100.00;97955.41;5030994;28;20183;-58
2023/12/06 02:14:20;;;;;;;47.83;26.05;;;;;;;6.73;100.00;97922.94;5030955;28;20190;-58
2023/12/06 02:16:46;;;;;;;60.78;29.77;;;;;;;6.93;100.00;97942.28;5030861;28;20186;-58
2023/12/06 02:19:17;;;;;;;59.22;27.15;;;;;;;6.60;100.00;97896.34;5030828;28;20198;-58
2023/12/06 02:21:44;;;;;;;52.75;25.50;;;;;;;6.56;100.00;97912.00;5030789;28;20288;-57
2023/12/06 02:24:11;;;;;;;60.85;27.60;;;;;;;6.42;100.00;97892.28;5030807;28;20182;-57
2023/12/06 02:26:36;;;;;;;60.15;29.20;;;;;;;6.35;100.00;97895.34;5032382;28;20649;-58
2023/12/06 02:29:02;;;;;;;62.20;30.13;;;;;;;6.09;100.00;97863.50;5033087;28;20177;-57
2023/12/06 02:31:28;;;;;;;65.10;33.70;;;;;;;6.08;100.00;97859.28;5032981;28;20629;-58
2023/12/06 02:33:54;;;;;;;71.90;34.63;;;;;;;6.19;100.00;97900.53;5033038;28;20186;-57
2023/12/06 02:36:21;;;;;;;57.35;31.25;;;;;;;6.53;100.00;97949.00;5032978;28;20189;-58
2023/12/06 02:38:47;;;;;;;59.70;30.50;;;;;;;6.47;100.00;97944.22;5032929;28;20185;-58
2023/12/06 02:41:16;;;;;;;69.65;30.52;;;;;;;6.54;100.00;97952.41;5032881;28;20171;-57
2023/12/06 02:43:43;;;;;;;63.47;31.23;;;;;;;6.22;100.00;97899.53;5032723;28;20688;-57
2023/12/06 02:46:08;;;;;;;61.50;30.90;;;;;;;6.67;100.00;97954.16;5032815;28;20181;-57
2023/12/06 02:48:34;;;;;;;59.75;31.02;;;;;;;6.46;100.00;97898.91;5032682;28;20174;-57
2023/12/06 02:50:59;;;;;;;62.13;31.00;;;;;;;6.54;100.00;97890.72;5033020;28;20182;-58
2023/12/06 02:53:25;;;;;;;60.88;32.00;;;;;;;6.46;100.00;97888.63;5032580;28;20627;-58
2023/12/06 02:55:50;;;;;;;69.57;31.55;;;;;;;6.78;100.00;97941.47;5032518;28;20202;-58
2023/12/06 02:58:15;;;;;;;61.58;31.38;;;;;;;6.73;100.00;97927.25;5032176;28;20170;-57
2023/12/06 03:00:41;;;;;;;70.20;34.40;;;;;;;6.58;100.00;97917.91;5032051;28;20216;-58
2023/12/06 03:03:06;;;;;;;66.70;33.47;;;;;;;6.79;100.00;97950.84;5032039;28;20260;-58
2023/12/06 03:05:32;;;;;;;72.22;33.35;;;;;;;6.37;100.00;97863.50;5032384;28;20187;-58
2023/12/06 03:07:57;;;;;;;69.75;33.05;;;;;;;6.46;100.00;97872.41;5032296;28;20580;-58
2023/12/06 03:10:23;;;;;;;74.20;34.28;;;;;;;6.53;100.00;97900.16;5032063;28;20236;-57
2023/12/06 03:12:48;;;;;;;78.00;33.50;;;;;;;6.40;100.00;97885.63;5032225;28;20178;-58
2023/12/06 03:15:14;;;;;;;69.53;33.63;;;;;;;6.47;100.00;97902.31;5032166;28;20637;-57
2023/12/06 03:17:39;;;;;;;71.78;35.15;;;;;;;6.24;100.00;97877.97;5032057;28;20186;-58
2023/12/06 03:20:06;;;;;;;64.85;33.55;;;;;;;6.37;100.00;97898.63;5032442;28;20185;-57
2023/12/06 03:22:32;;;;;;;62.90;33.42;;;;;;;6.53;100.00;97919.91;5032001;28;20207;-58
2023/12/06 03:24:58;;;;;;;63.33;31.75;;;;;;;6.44;100.00;97900.75;5031868;28;20186;-57
2023/12/06 03:27:23;;;;;;;60.15;31.50;;;;;;;6.47;100.00;97889.47;5031998;28;20176;-58
2023/12/06 03:29:49;;;;;;;60.65;30.80;;;;;;;6.60;100.00;97932.31;5029429;28;20189;-57
2023/12/06 03:32:14;;;;;;;58.53;29.48;;;;;;;6.56;100.00;97919.72;5029444;28;20186;-58
2023/12/06 03:34:40;;;;;;;63.72;31.27;;;;;;;6.36;100.00;97877.22;5029447;28;20295;-57
2023/12/06 03:37:06;;;;;;;59.42;31.10;;;;;;;6.43;100.00;97890.53;5029444;28;20182;-58
2023/12/06 03:39:32;;;;;;;61.17;30.80;;;;;;;6.70;100.00;97938.53;5029289;28;20220;-58
2023/12/06 03:41:59;;;;;;;64.25;32.28;;;;;;;6.23;100.00;97860.91;5029290;28;20265;-57
2023/12/06 03:44:25;;;;;;;62.67;32.35;;;;;;;6.75;100.00;97940.84;5029209;28;20194;-58
2023/12/06 03:46:50;;;;;;;62.08;31.75;;;;;;;6.54;100.00;97909.53;5029264;28;20174;-57
2023/12/06 03:49:16;;;;;;;64.57;30.45;;;;;;;6.58;100.00;97907.63;5029179;28;20657;-58
2023/12/06 03:51:42;;;;;;;66.75;33.70;;;;;;;6.19;100.00;97846.59;5029232;28;20564;-58
2023/12/06 03:54:07;;;;;;;62.08;32.92;;;;;;;6.58;100.00;97908.44;5029147;28;20218;-58
2023/12/06 03:56:33;;;;;;;59.33;31.58;;;;;;;6.25;100.00;97841.13;5029141;28;20198;-58
2023/12/06 03:58:58;;;;;;;58.65;30.00;;;;;;;6.70;100.00;97917.16;5029199;28;20780;-57
2023/12/06 04:01:24;;;;;;;56.67;29.60;;;;;;;6.56;100.00;97888.88;5030638;28;20194;-57
2023/12/06 04:03:49;;;;;;;56.92;30.88;;;;;;;6.61;100.00;97887.69;5031144;28;20202;-57
2023/12/06 04:06:15;;;;;;;66.32;32.95;;;;;;;6.78;100.00;97907.22;5031227;28;20232;-57
2023/12/06 04:08:40;;;;;;;67.45;32.90;;;;;;;6.83;100.00;97930.91;5031454;28;20644;-57
2023/12/06 04:11:06;;;;;;;78.38;32.47;;;;;;;6.69;100.00;97921.47;5031505;28;20276;-57
2023/12/06 04:13:31;;;;;;;62.05;29.42;;;;;;;6.18;100.00;97844.94;5031559;28;20206;-58
2023/12/06 04:15:56;;;;;;;57.45;30.00;;;;;;;6.19;100.00;97833.75;5035625;28;20175;-57
2023/12/06 04:18:22;;;;;;;61.13;32.85;;;;;;;6.52;100.00;97883.09;5035454;28;20225;-57
2023/12/06 04:20:47;;;;;;;59.72;32.08;;;;;;;6.58;100.00;97913.56;5032852;28;20630;-57
2023/12/06 04:23:13;;;;;;;65.65;32.80;;;;;;;6.04;100.00;97834.69;5032964;28;20257;-57
2023/12/06 04:25:39;;;;;;;54.10;29.20;;;;;;;6.38;100.00;97877.16;5032980;28;20627;-58
2023/12/06 04:28:04;;;;;;;56.22;28.52;;;;;;;6.62;100.00;97904.75;5033016;28;20241;-58
2023/12/06 04:30:30;;;;;;;52.78;28.98;;;;;;;6.22;100.00;97832.75;5032847;28;20724;-57
2023/12/06 04:32:55;;;;;;;48.80;28.30;;;;;;;6.54;100.00;97876.13;5032830;28;20273;-57
2023/12/06 04:35:24;;;;;;;52.42;27.38;;;;;;;6.60;100.00;97877.50;5032821;28;20178;-57
2023/12/06 04:37:49;;;;;;;53.85;26.40;;;;;;;6.83;100.00;97920.63;5032759;28;20679;-58
2023/12/06 04:40:15;;;;;;;55.38;28.77;;;;;;;6.75;100.00;97908.22;5032658;28;20273;-57
2023/12/06 04:42:40;;;;;;;53.13;26.40;;;;;;;6.34;100.00;97837.97;5032865;28;20206;-58
2023/12/06 04:45:06;;;;;;;54.42;26.88;;;;;;;6.61;100.00;97874.84;5032671;28;20652;-58
2023/12/06 04:47:31;;;;;;;52.97;28.63;;;;;;;6.70;100.00;97891.47;5032483;28;20186;-58
2023/12/06 04:49:57;;;;;;;59.00;28.67;;;;;;;6.75;100.00;97894.56;5032619;28;20368;-57
2023/12/06 04:52:22;;;;;;;66.30;30.13;;;;;;;6.61;100.00;97877.41;5034024;28;20673;-57
2023/12/06 04:54:48;;;;;;;67.32;30.70;;;;;;;6.37;100.00;97847.25;5035105;28;20178;-57
2023/12/06 04:57:14;;;;;;;56.17;28.40;;;;;;;6.87;100.00;97925.47;5034836;28;20584;-58
2023/12/06 04:59:39;;;;;;;57.22;28.38;;;;;;;6.60;100.00;97869.78;5032106;28;20552;-58
2023/12/06 05:02:05;;;;;;;53.88;27.52;;;;;;;6.69;100.00;97900.91;5032197;28;20225;-57
2023/12/06 05:04:30;;;;;;;68.03;29.77;;;;;;;6.38;100.00;97867.72;5032200;28;20179;-58
2023/12/06 05:06:56;;;;;;;56.60;28.33;;;;;;;6.12;100.00;97811.94;5012347;28;20649;-58
2023/12/06 05:09:21;;;;;;;63.05;31.88;;;;;;;6.30;100.00;97846.78;5012373;28;20296;-58
2023/12/06 05:11:47;;;;;;;62.17;32.88;;;;;;;6.39;100.00;97856.50;5012327;28;20195;-58
2023/12/06 05:14:13;;;;;;;65.70;32.17;;;;;;;6.38;100.00;97849.72;5012334;28;20202;-57
2023/12/06 05:16:39;;;;;;;57.78;31.88;;;;;;;6.73;100.00;97904.09;5012167;28;20214;-58
2023/12/06 05:19:04;;;;;;;63.00;33.47;;;;;;;6.68;100.00;97896.69;5029418;28;20252;-58
2023/12/06 05:21:30;;;;;;;59.03;31.95;;;;;;;6.38;100.00;97860.00;5051872;28;20680;-57
2023/12/06 05:23:55;;;;;;;59.33;30.42;;;;;;;6.29;100.00;97850.28;5051397;28;20217;-58
2023/12/06 05:26:22;;;;;;;59.05;29.00;;;;;;;5.98;100.00;97850.47;5051660;28;20182;-57
2023/12/06 05:28:48;;;;;;;62.83;29.00;;;;;;;6.12;100.00;97854.78;5051735;28;20239;-58
2023/12/06 05:31:13;;;;;;;59.50;30.30;;;;;;;6.19;100.00;97856.06;5051650;28;20190;-58
2023/12/06 05:33:39;;;;;;;62.67;31.20;;;;;;;6.04;100.00;97818.44;5051593;28;20240;-57
2023/12/06 05:36:07;;;;;;;68.57;31.48;;;;;;;6.08;100.00;97825.91;5051546;28;20182;-58
2023/12/06 05:38:32;;;;;;;58.72;29.27;;;;;;;6.04;100.00;97819.28;5051443;28;20708;-58
2023/12/06 05:40:58;;;;;;;65.25;32.42;;;;;;;6.35;100.00;97864.50;5051556;28;20336;-57
2023/12/06 05:43:23;;;;;;;62.55;32.78;;;;;;;5.96;100.00;97818.91;5049530;28;20213;-57
2023/12/06 05:45:49;;;;;;;64.45;31.73;;;;;;;6.51;100.00;97891.75;5033540;28;20244;-58
2023/12/06 05:48:14;;;;;;;60.72;31.05;;;;;;;6.36;100.00;97882.38;5033517;28;20174;-58
2023/12/06 05:50:40;;;;;;;73.50;32.53;;;;;;;6.56;100.00;97907.72;5033801;28;20177;-57
2023/12/06 05:53:05;;;;;;;66.22;33.10;;;;;;;6.64;100.00;97914.97;5033472;28;20665;-58
2023/12/06 05:55:30;;;;;;;67.15;31.80;;;;;;;6.53;100.00;97913.03;5033682;28;20178;-58
2023/12/06 05:57:56;;;;;;;77.22;37.25;;;;;;;6.21;100.00;97861.91;5033615;28;20175;-58
2023/12/06 06:00:24;;;;;;;66.78;35.97;;;;;;;6.02;100.00;97822.84;5036153;28;20185;-57
2023/12/06 06:02:49;;;;;;;73.53;35.03;;;;;;;6.25;100.00;97853.97;5052903;28;20208;-57
2023/12/06 06:05:16;;;;;;;71.05;33.83;;;;;;;6.43;100.00;97878.53;5052942;28;20170;-57
2023/12/06 06:07:42;;;;;;;68.00;34.65;;;;;;;6.19;100.00;97854.28;5053432;28;20174;-57
2023/12/06 06:10:08;;;;;;;65.53;33.88;;;;;;;6.56;100.00;97922.28;5053366;28;20200;-57
2023/12/06 06:12:33;;;;;;;65.15;31.80;;;;;;;6.68;100.00;97934.41;5053326;28;20181;-57
2023/12/06 06:14:58;;;;;;;68.10;31.80;;;;;;;6.30;100.00;97872.47;5053345;28;20170;-57
2023/12/06 06:17:24;;;;;;;76.85;31.83;;;;;;;6.35;100.00;97874.78;5053103;28;20174;-57
2023/12/06 06:19:49;;;;;;;69.38;30.92;;;;;;;6.32;100.00;97887.78;5052957;28;20201;-57
2023/12/06 06:22:15;;;;;;;57.80;30.80;;;;;;;6.18;100.00;97868.06;5053029;28;20209;-57
2023/12/06 06:24:40;;;;;;;73.95;32.70;;;;;;;6.49;100.00;97927.00;5053080;28;20172;-57
2023/12/06 06:27:06;;;;;;;63.63;31.08;;;;;;;5.92;100.00;97835.41;5053075;28;20181;-57
2023/12/06 06:29:31;;;;;;;74.43;34.78;;;;;;;6.19;100.00;97863.75;5052937;28;20166;-57
2023/12/06 06:31:57;;;;;;;80.57;35.75;;;;;;;6.28;100.00;97884.59;5052965;28;20184;-57
2023/12/06 06:34:22;;;;;;;83.55;37.22;;;;;;;6.46;100.00;97914.31;5052863;28;20173;-57
2023/12/06 06:36:48;;;;;;;72.00;35.67;;;;;;;6.51;100.00;97921.72;5051964;28;20517;-57
2023/12/06 06:39:13;;;;;;;83.07;36.50;;;;;;;6.35;100.00;97898.72;5053098;28;20200;-57
2023/12/06 06:41:39;;;;;;;79.07;34.28;;;;;;;5.87;100.00;97822.03;5052479;28;20177;-57
2023/12/06 06:44:05;;;;;;;75.70;36.65;;;;;;;5.82;100.00;97823.22;5040278;28;20210;-58
2023/12/06 06:46:31;;;;;;;92.53;40.15;;;;;;;6.36;100.00;97907.25;5052462;28;20253;-57
2023/12/06 06:48:56;;;;;;;85.47;38.83;;;;;;;6.29;100.00;97900.84;5052293;28;20174;-57
2023/12/06 06:51:37;;;;;;;84.47;37.53;;;;;;;5.89;100.00;97827.88;5052351;28;20181;-57
2023/12/06 06:54:04;;;;;;;80.35;37.58;;;;;;;6.29;100.00;97891.38;5052595;28;20178;-57
2023/12/06 06:56:30;;;;;;;81.10;38.97;;;;;;;5.72;100.00;97812.59;5052019;28;20231;-57
2023/12/06 06:58:55;;;;;;;85.93;41.60;;;;;;;6.41;100.00;97906.06;5051983;28;20170;-57
2023/12/06 07:01:21;;;;;;;89.15;39.03;;;;;;;6.46;100.00;97913.50;5052182;28;20640;-57
2023/12/06 07:03:46;;;;;;;81.25;39.25;;;;;;;5.79;100.00;97829.31;5052083;28;20260;-57
2023/12/06 07:06:12;;;;;;;87.25;40.10;;;;;;;5.57;100.00;97810.13;5050952;28;20628;-57
2023/12/06 07:08:38;;;;;;;78.30;39.13;;;;;;;6.20;100.00;97897.06;5052210;28;20269;-57
2023/12/06 07:11:04;;;;;;;79.97;38.72;;;;;;;5.87;100.00;97834.84;5052130;28;20252;-57
2023/12/06 07:13:30;;;;;;;85.72;40.53;;;;;;;6.28;100.00;97900.00;5052088;28;20193;-57
2023/12/06 07:15:56;;;;;;;85.78;40.05;;;;;;;6.13;100.00;97864.94;5051537;28;20487;-57
2023/12/06 07:18:21;;;;;;;84.80;39.92;;;;;;;6.16;100.00;97869.91;5050740;28;20232;-57
2023/12/06 07:20:48;;;;;;;80.47;37.85;;;;;;;6.05;100.00;97856.88;5051870;28;20194;-57
2023/12/06 07:23:15;;;;;;;81.35;38.90;;;;;;;5.99;100.00;97831.56;5051056;28;20624;-57
2023/12/06 07:25:40;;;;;;;76.25;38.78;;;;;;;6.33;100.00;97897.97;5051522;28;20313;-57
2023/12/06 07:28:06;;;;;;;85.45;40.95;;;;;;;6.37;100.00;97911.47;5051474;28;20179;-57
2023/12/06 07:30:31;;;;;;;86.18;40.08;;;;;;;6.24;100.00;97908.78;5051842;28;20666;-57
2023/12/06 07:32:57;;;;;;;83.72;40.63;;;;;;;6.16;100.00;97890.47;5051835;28;20178;-57
2023/12/06 07:35:22;;;;;;;92.18;41.30;;;;;;;5.80;100.00;97856.69;5051717;28;20178;-57
2023/12/06 07:37:48;;;;;;;83.68;39.28;;;;;;;5.82;100.00;97838.63;5051749;28;20546;-56
2023/12/06 07:40:14;;;;;;;83.05;39.00;;;;;;;5.74;100.00;97815.94;5051575;28;20177;-57
2023/12/06 07:42:39;;;;;;;87.45;41.00;;;;;;;6.04;100.00;97868.06;5051430;28;20209;-57
2023/12/06 07:45:06;;;;;;;83.88;38.50;;;;;;;5.81;100.00;97824.13;5051614;28;20201;-57
2023/12/06 07:47:31;;;;;;;87.95;38.63;;;;;;;6.00;100.00;97834.97;5051316;28;20209;-56
2023/12/06 07:49:57;;;;;;;89.90;40.58;;;;;;;6.06;100.00;97873.94;5051417;28;20228;-56
2023/12/06 07:52:22;;;;;;;90.75;42.38;;;;;;;5.78;100.00;97825.09;5051435;28;20178;-57
2023/12/06 07:54:48;;;;;;;98.43;42.25;;;;;;;5.89;100.00;97834.78;5048764;28;20185;-57
2023/12/06 07:57:13;;;;;;;91.80;41.97;;;;;;;6.25;100.00;97869.38;5049023;28;20204;-56
2023/12/06 07:59:40;;;;;;;78.15;40.17;;;;;;;6.38;100.00;97884.84;5048965;28;20695;-56
2023/12/06 08:02:06;;;;;;;89.32;41.05;;;;;;;6.56;100.00;97909.44;5048907;28;20272;-56
2023/12/06 08:04:32;;;;;;;97.88;46.22;;;;;;;6.04;100.00;97844.13;5048916;28;20277;-56
2023/12/06 08:06:57;;;;;;;93.65;42.92;;;;;;;6.17;100.00;97861.28;5048703;28;20699;-56
2023/12/06 08:09:23;;;;;;;93.63;41.80;;;;;;;6.28;100.00;97865.75;5048742;28;20226;-56
2023/12/06 08:11:48;;;;;;;79.50;41.65;;;;;;;6.50;100.00;97905.50;5048756;28;20186;-56
2023/12/06 08:14:14;;;;;;;88.45;43.40;;;;;;;6.11;100.00;97846.25;5048801;28;20188;-57
2023/12/06 08:16:39;;;;;;;102.53;46.05;;;;;;;5.95;100.00;97835.22;5048722;28;20648;-57
2023/12/06 08:19:05;;;;;;;110.00;50.00;;;;;;;6.34;100.00;97879.06;5048629;28;20310;-57
2023/12/06 08:21:30;;;;;;;97.20;45.88;;;;;;;6.75;100.00;97910.00;5048667;28;20316;-57
2023/12/06 08:23:56;;;;;;;98.03;44.13;;;;;;;6.63;100.00;97875.56;5048621;28;20212;-57
2023/12/06 08:26:21;;;;;;;99.90;48.03;;;;;;;6.75;100.00;97876.56;5063392;28;20246;-57
2023/12/06 08:28:47;;;;;;;102.10;45.95;;;;;;;6.81;100.00;97877.00;5068768;28;20758;-57
2023/12/06 08:31:13;;;;;;;90.60;43.40;;;;;;;6.61;100.00;97826.03;5068749;28;20209;-57
2023/12/06 08:33:38;;;;;;;89.38;44.00;;;;;;;7.14;100.00;97918.63;5048505;28;20694;-57
2023/12/06 08:36:04;;;;;;;85.30;42.92;;;;;;;7.03;100.00;97900.47;5048532;28;20190;-56
2023/12/06 08:38:30;;;;;;;82.68;40.75;;;;;;;6.92;100.00;97881.47;5048402;28;20190;-56
2023/12/06 08:40:55;;;;;;;81.80;39.00;;;;;;;6.76;100.00;97837.91;5048529;28;20178;-57
2023/12/06 08:43:21;;;;;;;77.25;39.60;;;;;;;7.05;100.00;97874.66;5048469;28;20220;-57
2023/12/06 08:45:46;;;;;;;73.32;37.55;;;;;;;7.06;100.00;97869.41;5048537;28;20656;-57
2023/12/06 08:48:11;;;;;;;73.80;38.30;;;;;;;6.91;100.00;97823.25;5048695;28;20194;-57
2023/12/06 08:50:37;;;;;;;86.07;39.13;;;;;;;7.45;100.00;97897.75;5048221;28;20222;-57
2023/12/06 08:53:03;;;;;;;78.25;38.10;;;;;;;7.17;100.00;97845.59;5048459;28;20284;-57
2023/12/06 08:55:28;;;;;;;78.22;37.10;;;;;;;7.20;100.00;97846.22;5048640;28;20214;-57
2023/12/06 08:57:54;;;;;;;76.05;36.97;;;;;;;6.98;100.00;97804.78;5048434;28;20259;-57
2023/12/06 09:00:19;;;;;;;74.32;36.03;;;;;;;7.64;100.00;97895.63;5050444;28;20235;-57
2023/12/06 09:02:45;;;;;;;68.05;35.65;;;;;;;7.69;100.00;97906.47;5052128;28;20206;-57
2023/12/06 09:05:11;;;;;;;64.72;32.67;;;;;;;7.68;100.00;97904.00;5053685;28;20189;-58
2023/12/06 09:07:40;;;;;;;61.45;33.88;;;;;;;7.39;100.00;97894.75;5054434;28;20185;-58
2023/12/06 09:10:07;;;;;;;75.82;36.72;;;;;;;7.27;100.00;97896.34;5054274;28;20268;-58
2023/12/06 09:12:33;;;;;;;76.35;35.08;;;;;;;6.71;100.00;97816.78;5054446;28;20174;-58
2023/12/06 09:14:58;;;;;;;78.53;37.53;;;;;;;7.16;100.00;97880.75;5054042;28;20720;-58
2023/12/06 09:17:24;;;;;;;76.57;37.53;;;;;;;7.17;100.00;97891.91;5054104;28;20190;-57
2023/12/06 09:19:51;;;;;;;65.63;35.60;;;;;;;6.71;100.00;97785.13;5054601;28;20247;-58
2023/12/06 09:22:17;;;;;;;76.72;35.72;;;;;;;7.16;100.00;97842.19;5054098;28;20288;-58
2023/12/06 09:24:43;;;;;;;102.20;53.25;;;;;;;6.82;100.00;97788.66;5054126;28;20635;-58
2023/12/06 09:27:09;;;;;;;75.40;39.00;;;;;;;6.90;100.00;97785.63;5054158;28;20170;-58
2023/12/06 09:29:35;;;;;;;239.82;98.15;;;;;;;7.13;100.00;97860.41;5054111;28;20209;-58
2023/12/06 09:32:00;;;;;;;220.10;89.55;;;;;;;6.33;100.00;97727.59;5054067;28;20231;-58
2023/12/06 09:34:26;;;;;;;166.13;65.43;;;;;;;6.91;100.00;97805.25;5053937;28;20173;-58
2023/12/06 09:36:51;;;;;;;89.88;42.00;;;;;;;7.23;100.00;97835.72;5053002;28;20178;-58
2023/12/06 09:39:20;;;;;;;83.45;40.38;;;;;;;6.96;100.00;97822.06;5053499;28;20220;-58
2023/12/06 09:41:46;;;;;;;71.65;34.97;;;;;;;6.70;100.00;97763.72;5053778;28;20178;-58
2023/12/06 09:44:15;;;;;;;68.93;33.20;;;;;;;7.05;100.00;97805.22;5053515;28;20205;-58
2023/12/06 09:46:42;;;;;;;64.70;31.52;;;;;;;7.18;100.00;97806.88;5053521;28;20177;-58
2023/12/06 09:49:08;;;;;;;59.05;32.20;;;;;;;7.54;100.00;97855.16;5053467;28;20616;-58
2023/12/06 09:51:34;;;;;;;61.13;30.90;;;;;;;7.20;100.00;97805.06;5051051;28;20239;-58
2023/12/06 09:53:59;;;;;;;60.38;32.75;;;;;;;7.42;100.00;97820.75;5024646;28;20205;-56
2023/12/06 09:56:26;;;;;;;54.88;29.95;;;;;;;7.38;100.00;97806.44;5030870;28;20194;-56
2023/12/06 09:58:51;;;;;;;57.70;31.73;;;;;;;7.26;100.00;97789.22;5030681;28;20187;-57
2023/12/06 10:01:17;;;;;;;62.33;31.65;;;;;;;7.55;100.00;97831.91;5030532;28;20263;-57
2023/12/06 10:03:42;;;;;;;67.07;32.67;;;;;;;7.46;100.00;97803.38;5026737;28;20258;-57
2023/12/06 10:06:08;;;;;;;56.83;29.50;;;;;;;7.71;100.00;97817.09;5010405;28;20194;-57
2023/12/06 10:08:34;;;;;;;58.72;31.27;;;;;;;7.46;100.00;97768.13;4991028;28;20336;-57
2023/12/06 10:11:04;;;;;;;63.63;30.55;;;;;;;7.83;100.00;97815.44;4989786;28;20203;-57
2023/12/06 10:13:34;;;;;;;57.47;30.08;;;;;;;7.34;100.00;97727.78;4991252;28;20191;-57
2023/12/06 10:16:00;;;;;;;58.22;29.50;;;;;;;7.26;100.00;97718.91;4991124;28;20211;-57
2023/12/06 10:18:26;;;;;;;64.15;29.90;;;;;;;7.44;100.00;97744.25;4990961;28;20207;-57
2023/12/06 10:20:52;;;;;;;54.63;29.45;;;;;;;7.55;100.00;97753.84;4991056;28;20192;-57
2023/12/06 10:23:17;;;;;;;57.15;28.67;;;;;;;7.44;100.00;97736.53;4991022;28;20279;-57
2023/12/06 10:25:45;;;;;;;53.90;27.52;;;;;;;7.96;100.00;97806.78;4990991;28;20235;-57
2023/12/06 10:28:14;;;;;;;56.13;29.98;;;;;;;7.89;100.00;97794.41;4990989;28;20647;-57
2023/12/06 10:30:39;;;;;;;61.92;31.08;;;;;;;7.46;100.00;97719.25;4990981;28;20184;-57
2023/12/06 10:33:06;;;;;;;55.65;30.92;;;;;;;7.27;100.00;97718.81;4971303;28;20231;-57
2023/12/06 10:35:33;;;;;;;69.85;32.65;;;;;;;7.58;100.00;97795.63;4968306;28;20282;-57
2023/12/06 10:37:59;;;;;;;63.15;33.55;;;;;;;7.65;100.00;97791.75;4987922;28;20188;-56
2023/12/06 10:40:26;;;;;;;57.97;33.20;;;;;;;7.69;100.00;97802.66;4990880;28;20303;-57
2023/12/06 10:43:00;;;;;;;60.75;32.95;;;;;;;7.78;100.00;97797.72;4990684;28;20728;-57
2023/12/06 10:45:25;;;;;;;71.60;35.53;;;;;;;7.35;100.00;97726.84;4990823;28;20203;-56
2023/12/06 10:47:54;;;;;;;120.18;48.40;;;;;;;7.59;100.00;97748.41;4989873;28;20191;-57
2023/12/06 10:50:21;;;;;;;68.82;34.75;;;;;;;7.50;100.00;97725.00;5002370;28;20199;-57
2023/12/06 10:52:48;;;;;;;73.70;34.97;;;;;;;7.78;100.00;97777.13;5006660;28;20677;-56
2023/12/06 10:55:16;;;;;;;69.47;33.92;;;;;;;7.95;100.00;97794.00;5010446;28;20183;-57
2023/12/06 10:57:42;;;;;;;63.95;32.17;;;;;;;7.55;100.00;97731.50;5010213;28;20179;-57
2023/12/06 11:00:08;;;;;;;59.45;32.00;;;;;;;7.45;100.00;97725.31;5010276;28;20189;-57
2023/12/06 11:02:34;;;;;;;68.30;33.80;;;;;;;7.25;100.00;97700.09;5010145;28;20210;-56
2023/12/06 11:05:05;;;;;;;63.35;32.72;;;;;;;7.29;100.00;97698.16;5046933;28;20189;-57
2023/12/06 11:08:00;;;;;;;62.72;31.13;;;;;;;7.89;100.00;97789.28;5052056;28;20726;-57
2023/12/06 11:10:45;;;;;;;66.63;30.92;;;;;;;7.74;100.00;97760.22;5052276;28;20194;-57